createdAt,value
2022-10-20T00:01:12.192Z,4.08
2022-10-20T00:03:39.892Z,4.03
2022-10-20T00:06:13.300Z,3.90
2022-10-20T00:08:41.786Z,3.83
2022-10-20T00:11:11.181Z,3.52
2022-10-20T00:13:40.171Z,3.67
2022-10-20T00:16:08.132Z,3.62
2022-10-20T00:18:36.517Z,3.61
2022-10-20T00:21:08.957Z,3.66
2022-10-20T00:23:36.840Z,3.61
2022-10-20T00:26:11.258Z,3.62
2022-10-20T00:28:38.823Z,3.64
2022-10-20T00:31:07.092Z,3.58
2022-10-20T00:33:35.598Z,3.62
2022-10-20T00:36:06.303Z,3.65
2022-10-20T00:38:34.767Z,3.69
2022-10-20T00:41:06.188Z,3.61
2022-10-20T00:43:45.665Z,3.58
2022-10-20T00:46:17.638Z,3.64
2022-10-20T00:48:48.940Z,3.77
2022-10-20T00:51:20.387Z,3.91
2022-10-20T00:53:50.859Z,3.86
2022-10-20T00:56:18.349Z,3.78
2022-10-20T00:58:46.206Z,3.67
2022-10-20T01:01:14.684Z,3.66
2022-10-20T01:03:48.682Z,3.52
2022-10-20T01:06:18.333Z,3.34
2022-10-20T01:08:46.072Z,3.12
2022-10-20T01:11:21.695Z,3.24
2022-10-20T01:14:10.724Z,3.38
2022-10-20T01:17:03.016Z,3.39
2022-10-20T01:19:54.514Z,3.35
2022-10-20T01:22:37.810Z,3.33
2022-10-20T01:26:01.062Z,3.38
2022-10-20T01:28:50.814Z,3.43
2022-10-20T01:31:42.748Z,3.37
2022-10-20T01:34:31.322Z,3.25
2022-10-20T01:37:34.370Z,3.30
2022-10-20T01:40:22.645Z,3.18
2022-10-20T01:42:54.188Z,2.94
2022-10-20T01:45:25.352Z,2.92
2022-10-20T01:47:54.768Z,2.86
2022-10-20T01:50:25.022Z,2.81
2022-10-20T01:52:57.888Z,2.52
2022-10-20T01:55:25.926Z,2.82
2022-10-20T01:58:08.458Z,2.80
2022-10-20T02:00:39.354Z,2.81
2022-10-20T02:03:32.877Z,2.62
2022-10-20T02:06:15.356Z,2.73
2022-10-20T02:08:47.419Z,2.71
2022-10-20T02:11:24.827Z,2.66
2022-10-20T02:13:55.919Z,2.66
2022-10-20T02:16:29.906Z,2.80
2022-10-20T02:21:32.112Z,2.59
2022-10-20T02:24:04.455Z,2.68
2022-10-20T02:26:34.075Z,2.44
2022-10-20T02:29:24.845Z,2.51
2022-10-20T02:31:52.371Z,2.25
2022-10-20T02:34:19.852Z,2.33
2022-10-20T02:36:47.551Z,2.45
2022-10-20T02:39:15.051Z,2.38
2022-10-20T02:41:42.568Z,2.29
2022-10-20T02:44:10.169Z,2.19
2022-10-20T02:46:37.686Z,2.29
2022-10-20T02:49:05.759Z,2.30
2022-10-20T02:51:33.325Z,2.29
2022-10-20T02:54:01.044Z,2.28
2022-10-20T02:56:30.948Z,2.26
2022-10-20T02:58:58.868Z,2.21
2022-10-20T03:01:26.478Z,2.23
2022-10-20T03:03:58.716Z,2.18
2022-10-20T03:06:26.765Z,2.26
2022-10-20T03:08:54.450Z,2.24
2022-10-20T03:11:22.127Z,2.25
2022-10-20T03:13:49.596Z,2.24
2022-10-20T03:16:17.115Z,2.26
2022-10-20T03:18:44.631Z,2.06
2022-10-20T03:21:12.163Z,2.07
2022-10-20T03:23:39.620Z,2.05
2022-10-20T03:26:10.063Z,2.00
2022-10-20T03:28:38.468Z,2.00
2022-10-20T03:31:06.944Z,2.05
2022-10-20T03:33:34.750Z,1.99
2022-10-20T03:36:02.572Z,2.05
2022-10-20T03:38:30.068Z,1.98
2022-10-20T03:40:59.552Z,2.11
2022-10-20T03:43:27.510Z,2.19
2022-10-20T03:46:06.279Z,2.06
2022-10-20T03:48:34.057Z,2.05
2022-10-20T03:51:02.250Z,1.86
2022-10-20T03:53:30.121Z,1.88
2022-10-20T03:55:57.660Z,1.89
2022-10-20T03:58:25.321Z,1.89
2022-10-20T04:00:55.191Z,1.88
2022-10-20T04:03:23.014Z,1.75
2022-10-20T04:05:50.520Z,1.83
2022-10-20T04:08:18.131Z,1.83
2022-10-20T04:10:46.136Z,1.90
2022-10-20T04:13:13.695Z,1.91
2022-10-20T04:15:41.172Z,1.94
2022-10-20T04:18:08.782Z,1.99
2022-10-20T04:20:38.268Z,1.91
2022-10-20T04:23:08.095Z,2.05
2022-10-20T04:25:35.715Z,2.08
2022-10-20T04:28:03.332Z,2.13
2022-10-20T04:30:31.387Z,2.20
2022-10-20T04:32:59.021Z,2.23
2022-10-20T04:35:26.533Z,2.17
2022-10-20T04:37:54.520Z,2.25
2022-10-20T04:40:22.640Z,2.17
2022-10-20T04:42:50.363Z,2.16
2022-10-20T04:45:18.045Z,2.17
2022-10-20T04:47:45.565Z,2.13
2022-10-20T04:50:14.547Z,2.06
2022-10-20T04:52:42.053Z,2.11
2022-10-20T04:55:09.795Z,2.15
2022-10-20T04:57:37.530Z,2.06
2022-10-20T05:00:08.208Z,2.09
2022-10-20T05:02:36.077Z,2.12
2022-10-20T05:05:04.987Z,2.13
2022-10-20T05:07:32.680Z,2.09
2022-10-20T05:10:00.713Z,2.15
2022-10-20T05:12:28.449Z,2.12
2022-10-20T05:14:56.075Z,2.17
2022-10-20T05:17:23.512Z,2.18
2022-10-20T05:19:51.170Z,2.20
2022-10-20T05:22:19.031Z,2.26
2022-10-20T05:24:46.575Z,2.19
2022-10-20T05:27:14.045Z,2.29
2022-10-20T05:29:43.525Z,2.28
2022-10-20T05:32:11.409Z,2.39
2022-10-20T05:34:45.952Z,2.45
2022-10-20T05:37:13.538Z,2.55
2022-10-20T05:39:43.506Z,2.53
2022-10-20T05:42:11.067Z,2.49
2022-10-20T05:44:38.494Z,2.87
2022-10-20T05:47:05.996Z,2.87
2022-10-20T05:49:34.421Z,3.03
2022-10-20T05:52:01.939Z,3.19
2022-10-20T05:54:29.353Z,3.33
2022-10-20T05:56:56.807Z,3.41
2022-10-20T05:59:26.975Z,3.72
2022-10-20T06:01:54.563Z,3.72
2022-10-20T06:04:23.829Z,3.90
2022-10-20T06:06:52.782Z,4.03
2022-10-20T06:09:22.064Z,4.25
2022-10-20T06:11:49.894Z,4.36
2022-10-20T06:14:18.065Z,4.51
2022-10-20T06:16:46.097Z,4.85
2022-10-20T06:19:13.665Z,4.83
2022-10-20T06:24:13.879Z,5.15
2022-10-20T06:26:43.129Z,5.64
2022-10-20T06:29:19.973Z,6.12
2022-10-20T06:31:50.223Z,6.21
2022-10-20T06:34:23.365Z,6.39
2022-10-20T06:36:51.143Z,6.67
2022-10-20T06:39:23.700Z,7.08
2022-10-20T06:41:53.850Z,7.36
2022-10-20T06:44:23.768Z,7.70
2022-10-20T06:46:55.112Z,7.84
2022-10-20T06:49:23.188Z,8.05
2022-10-20T06:51:50.956Z,8.38
2022-10-20T06:54:18.552Z,8.78
2022-10-20T06:56:47.321Z,9.05
2022-10-20T06:59:15.400Z,9.56
2022-10-20T07:01:43.147Z,9.91
2022-10-20T07:04:14.944Z,10.40
2022-10-20T07:06:44.758Z,11.67
2022-10-20T07:09:15.364Z,17.63
2022-10-20T07:11:43.791Z,21.60
2022-10-20T07:14:13.903Z,22.15
2022-10-20T07:16:41.901Z,22.70
2022-10-20T07:19:09.842Z,24.66
2022-10-20T07:21:39.297Z,21.39
2022-10-20T07:24:09.295Z,25.18
2022-10-20T07:26:39.520Z,26.62
2022-10-20T07:29:07.059Z,25.64
2022-10-20T07:31:40.971Z,24.86
2022-10-20T07:34:24.500Z,22.70
2022-10-20T07:36:55.607Z,24.02
2022-10-20T07:39:23.596Z,21.39
2022-10-20T07:41:51.228Z,24.66
2022-10-20T07:44:18.991Z,27.18
2022-10-20T07:46:46.575Z,25.51
2022-10-20T07:49:42.892Z,26.65
2022-10-20T07:52:01.767Z,26.09
2022-10-20T07:54:29.350Z,26.12
2022-10-20T07:56:56.957Z,30.60
2022-10-20T07:59:24.667Z,25.03
2022-10-20T08:01:56.006Z,27.12
2022-10-20T08:04:26.337Z,28.92
2022-10-20T08:06:53.946Z,28.45
2022-10-20T08:09:21.478Z,29.83
2022-10-20T08:11:52.764Z,28.60
2022-10-20T08:14:24.009Z,28.90
2022-10-20T08:16:53.926Z,27.62
2022-10-20T08:19:28.960Z,30.17
2022-10-20T08:21:56.465Z,29.20
2022-10-20T08:24:23.897Z,30.08
2022-10-20T08:26:51.365Z,27.56
2022-10-20T08:29:18.891Z,27.69
2022-10-20T08:31:46.371Z,26.89
2022-10-20T08:34:14.612Z,31.08
2022-10-20T08:36:42.188Z,32.51
2022-10-20T08:39:09.917Z,32.62
2022-10-20T08:42:06.289Z,32.99
2022-10-20T08:44:34.223Z,30.37
2022-10-20T08:47:03.152Z,32.10
2022-10-20T08:49:35.064Z,32.41
2022-10-20T08:52:02.912Z,32.91
2022-10-20T08:54:34.285Z,32.42
2022-10-20T08:57:01.862Z,33.90
2022-10-20T08:59:36.572Z,36.31
2022-10-20T09:02:16.699Z,33.96
2022-10-20T09:04:55.848Z,34.53
2022-10-20T09:07:34.560Z,33.15
2022-10-20T09:10:30.580Z,31.19
2022-10-20T09:12:59.067Z,33.72
2022-10-20T09:15:27.631Z,32.55
2022-10-20T09:18:06.607Z,33.89
2022-10-20T09:20:40.031Z,31.81
2022-10-20T09:23:35.562Z,33.38
2022-10-20T09:26:01.583Z,32.84
2022-10-20T09:28:38.391Z,33.14
2022-10-20T09:31:31.035Z,32.05
2022-10-20T09:33:58.936Z,29.45
2022-10-20T09:36:33.991Z,31.09
2022-10-20T09:39:02.202Z,28.08
2022-10-20T09:41:32.052Z,30.35
2022-10-20T09:43:59.446Z,31.01
2022-10-20T09:46:30.053Z,30.22
2022-10-20T09:48:58.501Z,30.79
2022-10-20T09:51:28.579Z,27.23
2022-10-20T09:54:08.061Z,29.27
2022-10-20T09:56:37.905Z,28.35
2022-10-20T09:59:32.480Z,28.60
2022-10-20T10:02:03.691Z,31.43
2022-10-20T10:04:39.706Z,28.40
2022-10-20T10:07:27.590Z,28.27
2022-10-20T10:10:08.476Z,29.03
2022-10-20T10:12:37.149Z,29.74
2022-10-20T10:15:23.478Z,27.90
2022-10-20T10:17:51.634Z,26.50
2022-10-20T10:20:22.914Z,26.22
2022-10-20T10:22:50.464Z,27.72
2022-10-20T10:25:25.284Z,29.47
2022-10-20T10:28:06.954Z,29.95
2022-10-20T10:30:37.415Z,28.07
2022-10-20T10:33:33.172Z,28.84
2022-10-20T10:36:14.747Z,24.32
2022-10-20T10:38:42.239Z,25.30
2022-10-20T10:41:37.276Z,28.45
2022-10-20T10:44:14.218Z,28.44
2022-10-20T10:47:01.297Z,25.55
2022-10-20T10:49:43.980Z,26.86
2022-10-20T10:52:49.716Z,25.61
2022-10-20T10:55:43.698Z,27.59
2022-10-20T10:58:33.331Z,23.98
2022-10-20T11:01:10.736Z,22.60
2022-10-20T11:03:44.252Z,25.14
2022-10-20T11:06:31.901Z,22.69
2022-10-20T11:09:14.957Z,25.91
2022-10-20T11:11:57.471Z,21.47
2022-10-20T11:14:39.999Z,24.93
2022-10-20T11:17:35.495Z,25.59
2022-10-20T11:20:27.511Z,23.82
2022-10-20T11:23:07.114Z,26.69
2022-10-20T11:25:59.677Z,29.10
2022-10-20T11:28:37.349Z,26.34
2022-10-20T11:31:05.922Z,27.04
2022-10-20T11:33:43.798Z,25.71
2022-10-20T11:36:16.861Z,25.02
2022-10-20T11:38:56.245Z,22.86
2022-10-20T11:41:58.982Z,26.32
2022-10-20T11:44:40.633Z,26.17
2022-10-20T11:47:12.235Z,29.48
2022-10-20T11:49:43.991Z,25.71
2022-10-20T11:52:21.269Z,28.64
2022-10-20T11:55:11.906Z,28.78
2022-10-20T11:57:52.203Z,25.63
2022-10-20T12:00:36.058Z,25.61
2022-10-20T12:03:33.802Z,27.18
2022-10-20T12:06:32.063Z,29.91
2022-10-20T12:09:40.054Z,26.58
2022-10-20T12:12:35.788Z,26.50
2022-10-20T12:15:20.281Z,25.57
2022-10-20T12:17:49.141Z,23.63
2022-10-20T12:20:21.407Z,24.63
2022-10-20T12:22:54.295Z,26.43
2022-10-20T12:25:25.031Z,27.41
2022-10-20T12:28:25.290Z,27.71
2022-10-20T12:30:58.676Z,27.23
2022-10-20T12:33:39.468Z,25.91
2022-10-20T12:36:31.903Z,29.35
2022-10-20T12:39:15.939Z,26.93
2022-10-20T12:41:45.897Z,26.29
2022-10-20T12:44:18.220Z,27.37
2022-10-20T12:47:04.691Z,27.13
2022-10-20T12:50:11.586Z,26.81
2022-10-20T12:52:40.504Z,24.32
2022-10-20T12:55:17.777Z,26.95
2022-10-20T12:57:46.205Z,25.45
2022-10-20T13:00:20.064Z,27.52
2022-10-20T13:02:52.145Z,29.16
2022-10-20T13:05:19.410Z,27.41
2022-10-20T13:07:47.022Z,25.42
2022-10-20T13:10:31.505Z,27.12
2022-10-20T13:13:01.824Z,24.42
2022-10-20T13:15:39.027Z,23.45
2022-10-20T13:18:13.976Z,23.85
2022-10-20T13:20:56.491Z,21.06
2022-10-20T13:23:43.025Z,20.81
2022-10-20T13:26:22.697Z,19.70
2022-10-20T13:28:54.377Z,19.49
2022-10-20T13:31:30.892Z,20.71
2022-10-20T13:34:15.383Z,19.98
2022-10-20T13:37:07.532Z,18.78
2022-10-20T13:39:58.243Z,19.01
2022-10-20T13:42:50.278Z,17.89
2022-10-20T13:45:17.666Z,17.98
2022-10-20T13:47:48.356Z,18.33
2022-10-20T13:50:29.930Z,17.76
2022-10-20T13:53:04.130Z,17.39
2022-10-20T13:55:59.564Z,17.17
2022-10-20T13:58:27.415Z,17.18
2022-10-20T14:01:24.253Z,16.44
2022-10-20T14:03:52.180Z,16.09
2022-10-20T14:06:32.273Z,16.67
2022-10-20T14:09:10.646Z,16.91
2022-10-20T14:11:41.474Z,16.36
2022-10-20T14:14:13.959Z,16.36
2022-10-20T14:16:57.545Z,16.31
2022-10-20T14:19:28.228Z,15.73
2022-10-20T14:21:58.407Z,15.94
2022-10-20T14:24:28.920Z,15.61
2022-10-20T14:29:38.701Z,15.81
2022-10-20T14:32:07.162Z,16.00
2022-10-20T14:34:36.218Z,15.85
2022-10-20T14:37:38.253Z,15.68
2022-10-20T14:40:20.760Z,15.31
2022-10-20T14:42:49.128Z,14.93
2022-10-20T14:45:20.953Z,14.93
2022-10-20T14:47:49.534Z,15.12
2022-10-20T14:50:37.496Z,14.90
2022-10-20T14:53:27.361Z,14.90
2022-10-20T14:55:57.337Z,14.61
2022-10-20T14:58:29.692Z,14.65
2022-10-20T15:01:18.872Z,14.58
2022-10-20T15:03:46.788Z,14.53
2022-10-20T15:06:17.983Z,14.27
2022-10-20T15:08:57.877Z,14.29
2022-10-20T15:11:28.162Z,14.32
2022-10-20T15:13:59.012Z,14.19
2022-10-20T15:16:42.941Z,13.98
2022-10-20T15:19:35.341Z,13.91
2022-10-20T15:22:11.242Z,13.77
2022-10-20T15:24:39.300Z,13.71
2022-10-20T15:27:15.530Z,13.49
2022-10-20T15:29:49.883Z,13.26
2022-10-20T15:32:18.325Z,13.33
2022-10-20T15:34:45.946Z,13.16
2022-10-20T15:37:13.564Z,13.02
2022-10-20T15:39:44.936Z,12.85
2022-10-20T15:42:12.923Z,12.72
2022-10-20T15:44:40.459Z,12.60
2022-10-20T15:47:08.380Z,12.38
2022-10-20T15:49:37.173Z,12.03
2022-10-20T15:52:05.337Z,11.68
2022-10-20T15:54:32.898Z,11.34
2022-10-20T15:57:00.747Z,11.03
2022-10-20T15:59:28.310Z,10.80
2022-10-20T16:01:55.855Z,10.59
2022-10-20T16:04:29.054Z,10.22
2022-10-20T16:07:02.552Z,10.06
2022-10-20T16:09:31.688Z,9.97
2022-10-20T16:11:59.342Z,9.78
2022-10-20T16:14:46.681Z,9.41
2022-10-20T16:17:34.965Z,9.25
2022-10-20T16:20:22.328Z,9.21
2022-10-20T16:23:09.781Z,9.00
2022-10-20T16:25:57.186Z,8.99
2022-10-20T16:28:44.513Z,8.82
2022-10-20T16:31:31.979Z,8.62
2022-10-20T16:34:00.321Z,8.44
2022-10-20T16:36:27.849Z,8.41
2022-10-20T16:38:57.217Z,8.28
2022-10-20T16:41:24.876Z,8.17
2022-10-20T16:43:55.263Z,8.08
2022-10-20T16:46:25.186Z,7.98
2022-10-20T16:48:52.760Z,7.89
2022-10-20T16:51:20.379Z,7.81
2022-10-20T16:53:48.360Z,7.71
2022-10-20T16:56:21.868Z,7.58
2022-10-20T16:58:50.233Z,7.53
2022-10-20T17:01:20.325Z,7.36
2022-10-20T17:03:50.641Z,7.41
2022-10-20T17:06:20.518Z,7.29
2022-10-20T17:08:49.048Z,7.24
2022-10-20T17:11:22.955Z,7.18
2022-10-20T17:13:51.332Z,6.91
2022-10-20T17:16:24.789Z,7.05
2022-10-20T17:19:05.838Z,6.96
2022-10-20T17:21:34.326Z,6.71
2022-10-20T17:24:02.618Z,6.68
2022-10-20T17:26:31.757Z,6.58
2022-10-20T17:29:01.114Z,6.33
2022-10-20T17:31:29.515Z,6.32
2022-10-20T17:33:58.718Z,6.24
2022-10-20T17:36:27.207Z,6.22
2022-10-20T17:38:59.509Z,6.17
2022-10-20T17:41:28.971Z,6.14
2022-10-20T17:43:59.994Z,5.95
2022-10-20T17:46:28.070Z,5.98
2022-10-20T17:48:56.204Z,5.90
2022-10-20T17:51:28.964Z,5.86
2022-10-20T17:53:59.889Z,5.80
2022-10-20T17:56:32.921Z,5.64
2022-10-20T17:59:02.978Z,5.64
2022-10-20T18:01:40.852Z,5.62
2022-10-20T18:04:12.471Z,5.54
2022-10-20T18:06:41.254Z,5.49
2022-10-20T18:09:12.029Z,5.35
2022-10-20T18:11:42.822Z,5.25
2022-10-20T18:14:11.513Z,5.23
2022-10-20T18:16:40.139Z,5.20
2022-10-20T18:19:09.104Z,5.04
2022-10-20T18:21:37.534Z,4.95
2022-10-20T18:24:08.547Z,4.78
2022-10-20T18:26:37.356Z,4.74
2022-10-20T18:29:07.315Z,4.70
2022-10-20T18:31:36.665Z,4.71
2022-10-20T18:34:08.205Z,4.77
2022-10-20T18:36:40.325Z,4.56
2022-10-20T18:39:11.189Z,4.64
2022-10-20T18:41:40.589Z,4.58
2022-10-20T18:44:16.242Z,4.43
2022-10-20T18:46:46.225Z,4.49
2022-10-20T18:49:15.773Z,4.45
2022-10-20T18:51:46.342Z,4.36
2022-10-20T18:54:15.146Z,4.36
2022-10-20T18:56:43.579Z,4.42
2022-10-20T18:59:16.347Z,4.44
2022-10-20T19:01:44.735Z,4.30
2022-10-20T19:04:12.702Z,4.13
2022-10-20T19:06:43.336Z,4.20
2022-10-20T19:09:15.723Z,4.24
2022-10-20T19:11:44.630Z,4.10
2022-10-20T19:14:13.503Z,4.15
2022-10-20T19:16:47.146Z,4.09
2022-10-20T19:19:15.769Z,4.03
2022-10-20T19:21:44.139Z,4.08
2022-10-20T19:24:15.890Z,4.11
2022-10-20T19:26:56.905Z,4.07
2022-10-20T19:29:35.888Z,4.00
2022-10-20T19:32:05.503Z,4.07
2022-10-20T19:34:37.476Z,4.21
2022-10-20T19:37:05.930Z,4.18
2022-10-20T19:39:37.095Z,4.12
2022-10-20T19:42:06.993Z,4.02
2022-10-20T19:44:35.535Z,3.85
2022-10-20T19:47:04.980Z,3.94
2022-10-20T19:49:34.195Z,3.77
2022-10-20T19:52:01.958Z,3.80
2022-10-20T19:54:29.578Z,3.82
2022-10-20T19:56:59.505Z,3.84
2022-10-20T19:59:27.089Z,3.68
2022-10-20T20:01:55.862Z,3.59
2022-10-20T20:04:23.759Z,3.50
2022-10-20T20:06:51.441Z,3.48
2022-10-20T20:09:19.240Z,3.58
2022-10-20T20:11:47.103Z,3.66
2022-10-20T20:14:19.071Z,3.71
2022-10-20T20:16:47.863Z,3.69
2022-10-20T20:19:17.284Z,3.64
2022-10-20T20:21:46.066Z,3.57
2022-10-20T20:24:14.558Z,3.63
2022-10-20T20:26:44.582Z,3.47
2022-10-20T20:29:12.492Z,3.39
2022-10-20T20:31:40.096Z,3.49
2022-10-20T20:34:07.766Z,3.48
2022-10-20T20:36:35.560Z,3.54
2022-10-20T20:39:03.627Z,3.46
2022-10-20T20:41:31.259Z,3.41
2022-10-20T20:44:01.002Z,3.33
2022-10-20T20:46:31.121Z,3.43
2022-10-20T20:49:01.207Z,3.49
2022-10-20T20:51:33.306Z,3.45
2022-10-20T20:54:03.219Z,3.42
2022-10-20T20:56:31.235Z,3.41
2022-10-20T20:58:58.783Z,3.48
2022-10-20T21:01:28.391Z,3.47
2022-10-20T21:03:58.306Z,3.54
2022-10-20T21:07:00.812Z,3.43
2022-10-20T21:09:27.310Z,3.35
2022-10-20T21:11:54.803Z,3.33
2022-10-20T21:14:22.587Z,3.28
2022-10-20T21:16:50.042Z,3.31
2022-10-20T21:19:17.729Z,3.57
2022-10-20T21:21:50.678Z,3.37
2022-10-20T21:24:18.537Z,3.45
2022-10-20T21:26:46.021Z,3.54
2022-10-20T21:29:17.781Z,3.44
2022-10-20T21:31:45.615Z,3.34
2022-10-20T21:34:13.153Z,3.37
2022-10-20T21:36:40.613Z,3.19
2022-10-20T21:39:11.716Z,3.34
2022-10-20T21:41:39.316Z,3.33
2022-10-20T21:44:07.920Z,3.17
2022-10-20T21:46:39.695Z,3.16
2022-10-20T21:49:10.623Z,3.08
2022-10-20T21:51:43.902Z,3.22
2022-10-20T21:54:14.795Z,3.15
2022-10-20T21:56:44.417Z,3.14
2022-10-20T21:59:25.773Z,3.17
2022-10-20T22:01:55.809Z,3.14
2022-10-20T22:04:25.937Z,3.16
2022-10-20T22:06:54.413Z,3.23
2022-10-20T22:09:22.811Z,3.16
2022-10-20T22:11:55.128Z,3.11
2022-10-20T22:14:23.354Z,3.15
2022-10-20T22:16:51.074Z,3.20
2022-10-20T22:19:20.829Z,3.35
2022-10-20T22:21:50.312Z,3.16
2022-10-20T22:24:18.824Z,3.14
2022-10-20T22:26:47.322Z,3.14
2022-10-20T22:29:15.153Z,3.05
2022-10-20T22:31:42.651Z,3.22
2022-10-20T22:34:10.615Z,3.27
2022-10-20T22:36:39.395Z,3.20
2022-10-20T22:39:08.387Z,3.17
2022-10-20T22:41:36.043Z,3.19
2022-10-20T22:44:04.164Z,3.18
2022-10-20T22:46:31.824Z,3.13
2022-10-20T22:48:59.684Z,3.18
2022-10-20T22:51:27.287Z,3.41
2022-10-20T22:53:54.827Z,3.55
2022-10-20T22:56:23.616Z,3.37
2022-10-20T22:58:53.485Z,3.30
2022-10-20T23:01:23.402Z,3.16
2022-10-20T23:03:51.637Z,3.33
2022-10-20T23:06:25.182Z,3.36
2022-10-20T23:08:55.019Z,3.20
2022-10-20T23:11:23.206Z,3.31
2022-10-20T23:13:51.232Z,3.24
2022-10-20T23:16:19.043Z,3.10
2022-10-20T23:18:47.034Z,3.14
2022-10-20T23:21:14.987Z,3.16
2022-10-20T23:23:42.910Z,3.26
2022-10-20T23:26:11.425Z,3.13
2022-10-20T23:28:39.905Z,3.22
2022-10-20T23:31:12.163Z,3.22
2022-10-20T23:33:41.532Z,3.31
2022-10-20T23:36:10.008Z,3.04
2022-10-20T23:38:37.531Z,3.08
2022-10-20T23:41:05.554Z,3.03
2022-10-20T23:43:33.957Z,2.95
2022-10-20T23:46:01.946Z,2.74
2022-10-20T23:48:29.424Z,2.88
2022-10-20T23:50:57.573Z,2.76
2022-10-20T23:53:25.604Z,2.90
2022-10-20T23:55:53.255Z,2.90
2022-10-20T23:58:22.568Z,3.06
